sensor_id;sensor_type;location;lat;lon;timestamp;P1;P2;P0
34240;PMS7003;20503;50.200;19.508;2023-03-17T00:00:37;17;11;8
34240;PMS7003;20503;50.200;19.508;2023-03-17T00:05:47;28;16;12
34240;PMS7003;20503;50.200;19.508;2023-03-17T00:10:54;25;16;9
34240;PMS7003;20503;50.200;19.508;2023-03-17T00:16:01;15;12;9
34240;PMS7003;20503;50.200;19.508;2023-03-17T00:21:13;26;19;12
34240;PMS7003;20503;50.200;19.508;2023-03-17T00:26:20;17;14;10
34240;PMS7003;20503;50.200;19.508;2023-03-17T00:31:26;19;14;9
34240;PMS7003;20503;50.200;19.508;2023-03-17T00:36:32;18;12;9
34240;PMS7003;20503;50.200;19.508;2023-03-17T00:41:40;17;15;10
34240;PMS7003;20503;50.200;19.508;2023-03-17T00:46:48;16;13;10
34240;PMS7003;20503;50.200;19.508;2023-03-17T00:51:55;25;16;8
34240;PMS7003;20503;50.200;19.508;2023-03-17T00:57:03;18;15;10
34240;PMS7003;20503;50.200;19.508;2023-03-17T01:02:12;20;16;12
34240;PMS7003;20503;50.200;19.508;2023-03-17T01:07:20;22;17;10
34240;PMS7003;20503;50.200;19.508;2023-03-17T01:12:27;18;16;12
34240;PMS7003;20503;50.200;19.508;2023-03-17T01:17:35;21;14;10
34240;PMS7003;20503;50.200;19.508;2023-03-17T01:22:43;22;13;8
34240;PMS7003;20503;50.200;19.508;2023-03-17T01:27:52;16;12;8
34240;PMS7003;20503;50.200;19.508;2023-03-17T01:33:00;18;17;11
34240;PMS7003;20503;50.200;19.508;2023-03-17T01:38:08;16;14;10
34240;PMS7003;20503;50.200;19.508;2023-03-17T01:43:33;21;14;8
34240;PMS7003;20503;50.200;19.508;2023-03-17T01:48:28;10;10;7
34240;PMS7003;20503;50.200;19.508;2023-03-17T01:53:37;14;13;8
34240;PMS7003;20503;50.200;19.508;2023-03-17T01:58:39;19;14;9
34240;PMS7003;20503;50.200;19.508;2023-03-17T02:03:48;18;12;8
34240;PMS7003;20503;50.200;19.508;2023-03-17T02:08:56;15;10;8
34240;PMS7003;20503;50.200;19.508;2023-03-17T02:14:04;12;9;8
34240;PMS7003;20503;50.200;19.508;2023-03-17T02:19:12;11;8;6
34240;PMS7003;20503;50.200;19.508;2023-03-17T02:24:21;13;10;8
34240;PMS7003;20503;50.200;19.508;2023-03-17T02:29:32;11;8;6
34240;PMS7003;20503;50.200;19.508;2023-03-17T02:34:37;9;9;6
34240;PMS7003;20503;50.200;19.508;2023-03-17T02:39:43;11;7;5
34240;PMS7003;20503;50.200;19.508;2023-03-17T02:44:52;14;12;8
34240;PMS7003;20503;50.200;19.508;2023-03-17T02:49:59;13;11;8
34240;PMS7003;20503;50.200;19.508;2023-03-17T02:55:07;12;8;6
34240;PMS7003;20503;50.200;19.508;2023-03-17T03:00:15;13;8;6
34240;PMS7003;20503;50.200;19.508;2023-03-17T03:05:24;8;7;5
34240;PMS7003;20503;50.200;19.508;2023-03-17T03:10:30;12;6;5
34240;PMS7003;20503;50.200;19.508;2023-03-17T03:15:39;15;10;7
34240;PMS7003;20503;50.200;19.508;2023-03-17T03:20:46;13;8;6
34240;PMS7003;20503;50.200;19.508;2023-03-17T03:25:54;13;9;6
34240;PMS7003;20503;50.200;19.508;2023-03-17T03:31:02;14;11;8
34240;PMS7003;20503;50.200;19.508;2023-03-17T03:36:09;12;9;6
34240;PMS7003;20503;50.200;19.508;2023-03-17T03:41:16;12;11;8
34240;PMS7003;20503;50.200;19.508;2023-03-17T03:46:25;21;12;7
34240;PMS7003;20503;50.200;19.508;2023-03-17T03:51:33;12;8;5
34240;PMS7003;20503;50.200;19.508;2023-03-17T03:56:41;14;9;7
34240;PMS7003;20503;50.200;19.508;2023-03-17T04:01:48;10;8;5
34240;PMS7003;20503;50.200;19.508;2023-03-17T04:06:56;11;8;5
34240;PMS7003;20503;50.200;19.508;2023-03-17T04:12:04;11;7;5
34240;PMS7003;20503;50.200;19.508;2023-03-17T04:17:12;10;7;5
34240;PMS7003;20503;50.200;19.508;2023-03-17T04:22:19;9;7;5
34240;PMS7003;20503;50.200;19.508;2023-03-17T04:27:27;13;9;7
34240;PMS7003;20503;50.200;19.508;2023-03-17T04:32:34;12;10;8
34240;PMS7003;20503;50.200;19.508;2023-03-17T04:37:42;14;10;6
34240;PMS7003;20503;50.200;19.508;2023-03-17T04:42:50;15;12;9
34240;PMS7003;20503;50.200;19.508;2023-03-17T04:47:57;18;14;10
34240;PMS7003;20503;50.200;19.508;2023-03-17T04:53:04;18;13;8
34240;PMS7003;20503;50.200;19.508;2023-03-17T04:58:13;23;12;7
34240;PMS7003;20503;50.200;19.508;2023-03-17T05:03:20;15;11;8
34240;PMS7003;20503;50.200;19.508;2023-03-17T05:08:28;17;13;8
34240;PMS7003;20503;50.200;19.508;2023-03-17T05:13:36;18;13;9
34240;PMS7003;20503;50.200;19.508;2023-03-17T05:18:43;20;13;10
34240;PMS7003;20503;50.200;19.508;2023-03-17T05:23:51;17;13;8
34240;PMS7003;20503;50.200;19.508;2023-03-17T05:28:58;18;10;7
34240;PMS7003;20503;50.200;19.508;2023-03-17T05:34:06;14;12;8
34240;PMS7003;20503;50.200;19.508;2023-03-17T05:39:14;14;10;8
34240;PMS7003;20503;50.200;19.508;2023-03-17T05:44:21;16;14;8
34240;PMS7003;20503;50.200;19.508;2023-03-17T05:49:29;12;10;7
34240;PMS7003;20503;50.200;19.508;2023-03-17T05:54:36;14;10;7
34240;PMS7003;20503;50.200;19.508;2023-03-17T05:59:44;15;9;6
34240;PMS7003;20503;50.200;19.508;2023-03-17T06:04:53;17;11;7
34240;PMS7003;20503;50.200;19.508;2023-03-17T06:10:00;17;13;9
34240;PMS7003;20503;50.200;19.508;2023-03-17T06:15:07;21;18;12
34240;PMS7003;20503;50.200;19.508;2023-03-17T06:20:15;19;15;9
34240;PMS7003;20503;50.200;19.508;2023-03-17T06:25:23;23;16;12
34240;PMS7003;20503;50.200;19.508;2023-03-17T06:30:31;21;16;9
34240;PMS7003;20503;50.200;19.508;2023-03-17T06:35:38;29;23;16
34240;PMS7003;20503;50.200;19.508;2023-03-17T06:40:46;28;23;18
34240;PMS7003;20503;50.200;19.508;2023-03-17T06:45:54;59;49;33
34240;PMS7003;20503;50.200;19.508;2023-03-17T06:51:02;36;30;23
34240;PMS7003;20503;50.200;19.508;2023-03-17T07:01:18;23;17;11
34240;PMS7003;20503;50.200;19.508;2023-03-17T07:06:26;21;18;12
34240;PMS7003;20503;50.200;19.508;2023-03-17T07:11:34;16;12;11
34240;PMS7003;20503;50.200;19.508;2023-03-17T07:16:41;16;16;13
34240;PMS7003;20503;50.200;19.508;2023-03-17T07:21:48;14;11;8
34240;PMS7003;20503;50.200;19.508;2023-03-17T07:26:57;13;11;7
34240;PMS7003;20503;50.200;19.508;2023-03-17T07:32:05;12;12;10
34240;PMS7003;20503;50.200;19.508;2023-03-17T07:37:12;19;13;10
34240;PMS7003;20503;50.200;19.508;2023-03-17T07:42:20;18;15;12
34240;PMS7003;20503;50.200;19.508;2023-03-17T07:47:29;15;12;8
34240;PMS7003;20503;50.200;19.508;2023-03-17T07:52:35;21;15;9
34240;PMS7003;20503;50.200;19.508;2023-03-17T07:57:43;12;8;7
34240;PMS7003;20503;50.200;19.508;2023-03-17T08:02:51;14;10;7
34240;PMS7003;20503;50.200;19.508;2023-03-17T08:07:59;14;13;9
34240;PMS7003;20503;50.200;19.508;2023-03-17T08:13:07;20;16;12
34240;PMS7003;20503;50.200;19.508;2023-03-17T08:18:14;20;19;12
34240;PMS7003;20503;50.200;19.508;2023-03-17T08:23:22;65;48;30
34240;PMS7003;20503;50.200;19.508;2023-03-17T08:28:30;27;25;12
34240;PMS7003;20503;50.200;19.508;2023-03-17T08:33:38;26;23;17
34240;PMS7003;20503;50.200;19.508;2023-03-17T08:38:46;23;18;11
34240;PMS7003;20503;50.200;19.508;2023-03-17T08:43:53;12;12;10
34240;PMS7003;20503;50.200;19.508;2023-03-17T08:49:01;15;12;8
34240;PMS7003;20503;50.200;19.508;2023-03-17T08:54:08;14;11;7
34240;PMS7003;20503;50.200;19.508;2023-03-17T08:59:17;12;10;8
34240;PMS7003;20503;50.200;19.508;2023-03-17T09:04:24;11;9;7
34240;PMS7003;20503;50.200;19.508;2023-03-17T09:09:32;12;12;9
34240;PMS7003;20503;50.200;19.508;2023-03-17T09:14:40;16;14;10
34240;PMS7003;20503;50.200;19.508;2023-03-17T09:19:48;18;13;10
34240;PMS7003;20503;50.200;19.508;2023-03-17T09:24:55;12;10;8
34240;PMS7003;20503;50.200;19.508;2023-03-17T09:30:03;18;17;12
34240;PMS7003;20503;50.200;19.508;2023-03-17T09:35:10;18;17;11
34240;PMS7003;20503;50.200;19.508;2023-03-17T09:40:18;19;15;11
34240;PMS7003;20503;50.200;19.508;2023-03-17T09:55:50;16;14;12
34240;PMS7003;20503;50.200;19.508;2023-03-17T10:00:56;16;12;9
34240;PMS7003;20503;50.200;19.508;2023-03-17T10:11:15;13;12;10
34240;PMS7003;20503;50.200;19.508;2023-03-17T10:21:49;16;13;8
34240;PMS7003;20503;50.200;19.508;2023-03-17T10:26:55;16;12;9
34240;PMS7003;20503;50.200;19.508;2023-03-17T10:32:06;19;10;8
34240;PMS7003;20503;50.200;19.508;2023-03-17T10:37:13;10;10;7
34240;PMS7003;20503;50.200;19.508;2023-03-17T10:42:24;11;9;7
34240;PMS7003;20503;50.200;19.508;2023-03-17T10:47:30;12;10;7
34240;PMS7003;20503;50.200;19.508;2023-03-17T10:52:35;17;14;9
34240;PMS7003;20503;50.200;19.508;2023-03-17T10:57:40;18;13;10
34240;PMS7003;20503;50.200;19.508;2023-03-17T11:02:55;13;11;8
34240;PMS7003;20503;50.200;19.508;2023-03-17T11:21:26;11;9;6
34240;PMS7003;20503;50.200;19.508;2023-03-17T11:42:19;13;9;7
34240;PMS7003;20503;50.200;19.508;2023-03-17T11:58:01;18;12;9
34240;PMS7003;20503;50.200;19.508;2023-03-17T12:03:16;12;9;7
34240;PMS7003;20503;50.200;19.508;2023-03-17T12:13:38;14;11;7
34240;PMS7003;20503;50.200;19.508;2023-03-17T12:29:24;11;7;4
34240;PMS7003;20503;50.200;19.508;2023-03-17T12:39:53;15;10;7
34240;PMS7003;20503;50.200;19.508;2023-03-17T12:55:30;6;5;4
34240;PMS7003;20503;50.200;19.508;2023-03-17T13:05:51;5;5;4
34240;PMS7003;20503;50.200;19.508;2023-03-17T13:21:27;6;6;4
34240;PMS7003;20503;50.200;19.508;2023-03-17T13:31:46;6;4;4
34240;PMS7003;20503;50.200;19.508;2023-03-17T13:42:02;13;8;5
34240;PMS7003;20503;50.200;19.508;2023-03-17T13:47:25;11;10;9
34240;PMS7003;20503;50.200;19.508;2023-03-17T13:52:31;11;8;5
34240;PMS7003;20503;50.200;19.508;2023-03-17T13:57:38;13;8;5
34240;PMS7003;20503;50.200;19.508;2023-03-17T14:02:39;10;8;5
34240;PMS7003;20503;50.200;19.508;2023-03-17T14:07:49;8;8;6
34240;PMS7003;20503;50.200;19.508;2023-03-17T14:13:06;10;8;5
34240;PMS7003;20503;50.200;19.508;2023-03-17T14:18:20;9;6;5
34240;PMS7003;20503;50.200;19.508;2023-03-17T14:23:27;9;6;5
34240;PMS7003;20503;50.200;19.508;2023-03-17T14:28:31;7;6;4
34240;PMS7003;20503;50.200;19.508;2023-03-17T14:33:38;6;6;5
34240;PMS7003;20503;50.200;19.508;2023-03-17T14:38:48;10;6;4
34240;PMS7003;20503;50.200;19.508;2023-03-17T14:43:52;7;5;5
34240;PMS7003;20503;50.200;19.508;2023-03-17T14:48:59;9;8;6
34240;PMS7003;20503;50.200;19.508;2023-03-17T14:59:24;10;7;5
34240;PMS7003;20503;50.200;19.508;2023-03-17T15:04:32;16;14;10
34240;PMS7003;20503;50.200;19.508;2023-03-17T15:09:41;14;11;7
34240;PMS7003;20503;50.200;19.508;2023-03-17T15:14:43;14;10;7
34240;PMS7003;20503;50.200;19.508;2023-03-17T15:19:49;17;10;7
34240;PMS7003;20503;50.200;19.508;2023-03-17T15:30:02;79;54;32
34240;PMS7003;20503;50.200;19.508;2023-03-17T15:35:04;11;10;8
34240;PMS7003;20503;50.200;19.508;2023-03-17T15:40:08;12;8;7
34240;PMS7003;20503;50.200;19.508;2023-03-17T15:45:14;12;9;7
34240;PMS7003;20503;50.200;19.508;2023-03-17T15:50:19;14;10;8
34240;PMS7003;20503;50.200;19.508;2023-03-17T15:55:25;16;9;6
34240;PMS7003;20503;50.200;19.508;2023-03-17T16:00:31;11;8;8
34240;PMS7003;20503;50.200;19.508;2023-03-17T16:05:34;9;8;7
34240;PMS7003;20503;50.200;19.508;2023-03-17T16:10:36;17;10;8
34240;PMS7003;20503;50.200;19.508;2023-03-17T16:15:38;10;8;6
34240;PMS7003;20503;50.200;19.508;2023-03-17T16:20:43;17;9;6
34240;PMS7003;20503;50.200;19.508;2023-03-17T16:25:47;11;9;7
34240;PMS7003;20503;50.200;19.508;2023-03-17T16:30:52;37;25;14
34240;PMS7003;20503;50.200;19.508;2023-03-17T16:35:58;33;21;12
34240;PMS7003;20503;50.200;19.508;2023-03-17T16:41:04;43;32;20
34240;PMS7003;20503;50.200;19.508;2023-03-17T16:46:08;30;19;10
34240;PMS7003;20503;50.200;19.508;2023-03-17T16:51:11;34;27;13
34240;PMS7003;20503;50.200;19.508;2023-03-17T16:56:14;21;17;11
34240;PMS7003;20503;50.200;19.508;2023-03-17T17:01:20;30;15;9
34240;PMS7003;20503;50.200;19.508;2023-03-17T17:06:25;18;15;11
34240;PMS7003;20503;50.200;19.508;2023-03-17T17:11:26;53;40;25
34240;PMS7003;20503;50.200;19.508;2023-03-17T17:16:28;225;164;80
34240;PMS7003;20503;50.200;19.508;2023-03-17T17:21:31;83;57;33
34240;PMS7003;20503;50.200;19.508;2023-03-17T17:26:35;105;82;42
34240;PMS7003;20503;50.200;19.508;2023-03-17T17:31:39;227;165;81
34240;PMS7003;20503;50.200;19.508;2023-03-17T17:36:42;97;63;34
34240;PMS7003;20503;50.200;19.508;2023-03-17T17:41:47;67;49;27
34240;PMS7003;20503;50.200;19.508;2023-03-17T17:46:50;66;50;30
34240;PMS7003;20503;50.200;19.508;2023-03-17T17:51:51;66;43;25
34240;PMS7003;20503;50.200;19.508;2023-03-17T17:56:53;48;37;20
34240;PMS7003;20503;50.200;19.508;2023-03-17T18:01:56;43;37;21
34240;PMS7003;20503;50.200;19.508;2023-03-17T18:07:00;57;39;23
34240;PMS7003;20503;50.200;19.508;2023-03-17T18:12:02;39;33;17
34240;PMS7003;20503;50.200;19.508;2023-03-17T18:17:04;25;16;11
34240;PMS7003;20503;50.200;19.508;2023-03-17T18:22:07;53;42;24
34240;PMS7003;20503;50.200;19.508;2023-03-17T18:27:08;35;30;17
34240;PMS7003;20503;50.200;19.508;2023-03-17T18:32:11;39;25;17
34240;PMS7003;20503;50.200;19.508;2023-03-17T18:37:14;34;24;15
34240;PMS7003;20503;50.200;19.508;2023-03-17T18:42:19;23;19;14
34240;PMS7003;20503;50.200;19.508;2023-03-17T18:47:27;30;20;14
34240;PMS7003;20503;50.200;19.508;2023-03-17T18:52:35;31;26;15
34240;PMS7003;20503;50.200;19.508;2023-03-17T18:57:43;27;25;15
34240;PMS7003;20503;50.200;19.508;2023-03-17T19:02:51;34;29;16
34240;PMS7003;20503;50.200;19.508;2023-03-17T19:07:59;30;24;15
34240;PMS7003;20503;50.200;19.508;2023-03-17T19:13:07;35;32;21
34240;PMS7003;20503;50.200;19.508;2023-03-17T19:18:14;26;17;11
34240;PMS7003;20503;50.200;19.508;2023-03-17T19:23:22;29;21;14
34240;PMS7003;20503;50.200;19.508;2023-03-17T19:28:31;41;29;18
34240;PMS7003;20503;50.200;19.508;2023-03-17T19:33:39;49;35;19
34240;PMS7003;20503;50.200;19.508;2023-03-17T19:38:46;39;28;16
34240;PMS7003;20503;50.200;19.508;2023-03-17T19:43:53;34;25;15
34240;PMS7003;20503;50.200;19.508;2023-03-17T19:49:01;29;19;14
34240;PMS7003;20503;50.200;19.508;2023-03-17T19:54:09;22;20;11
34240;PMS7003;20503;50.200;19.508;2023-03-17T19:59:17;38;33;20
34240;PMS7003;20503;50.200;19.508;2023-03-17T20:04:25;21;19;13
34240;PMS7003;20503;50.200;19.508;2023-03-17T20:09:33;20;17;12
34240;PMS7003;20503;50.200;19.508;2023-03-17T20:14:41;27;21;12
34240;PMS7003;20503;50.200;19.508;2023-03-17T20:19:48;34;20;13
34240;PMS7003;20503;50.200;19.508;2023-03-17T20:24:56;38;26;16
34240;PMS7003;20503;50.200;19.508;2023-03-17T20:30:04;53;32;22
34240;PMS7003;20503;50.200;19.508;2023-03-17T20:35:11;42;24;14
34240;PMS7003;20503;50.200;19.508;2023-03-17T20:40:19;43;33;18
34240;PMS7003;20503;50.200;19.508;2023-03-17T20:45:27;39;30;17
34240;PMS7003;20503;50.200;19.508;2023-03-17T20:50:35;34;27;15
34240;PMS7003;20503;50.200;19.508;2023-03-17T20:55:43;28;23;16
34240;PMS7003;20503;50.200;19.508;2023-03-17T21:00:51;33;25;16
34240;PMS7003;20503;50.200;19.508;2023-03-17T21:05:58;31;24;14
34240;PMS7003;20503;50.200;19.508;2023-03-17T21:11:06;33;25;15
34240;PMS7003;20503;50.200;19.508;2023-03-17T21:16:19;37;29;16
34240;PMS7003;20503;50.200;19.508;2023-03-17T21:21:24;48;30;15
34240;PMS7003;20503;50.200;19.508;2023-03-17T21:26:30;32;24;14
34240;PMS7003;20503;50.200;19.508;2023-03-17T21:31:37;28;25;15
34240;PMS7003;20503;50.200;19.508;2023-03-17T21:36:45;45;34;17
34240;PMS7003;20503;50.200;19.508;2023-03-17T21:41:53;35;30;17
34240;PMS7003;20503;50.200;19.508;2023-03-17T21:47:01;31;26;15
34240;PMS7003;20503;50.200;19.508;2023-03-17T21:52:08;37;26;16
34240;PMS7003;20503;50.200;19.508;2023-03-17T21:57:16;28;18;12
34240;PMS7003;20503;50.200;19.508;2023-03-17T22:02:24;35;25;14
34240;PMS7003;20503;50.200;19.508;2023-03-17T22:07:31;26;20;14
34240;PMS7003;20503;50.200;19.508;2023-03-17T22:12:39;26;20;13
34240;PMS7003;20503;50.200;19.508;2023-03-17T22:17:47;28;22;14
34240;PMS7003;20503;50.200;19.508;2023-03-17T22:22:54;33;25;16
34240;PMS7003;20503;50.200;19.508;2023-03-17T22:28:02;43;26;16
34240;PMS7003;20503;50.200;19.508;2023-03-17T22:33:10;34;23;13
34240;PMS7003;20503;50.200;19.508;2023-03-17T22:38:18;29;21;13
34240;PMS7003;20503;50.200;19.508;2023-03-17T22:43:26;27;22;13
34240;PMS7003;20503;50.200;19.508;2023-03-17T22:48:33;24;22;13
34240;PMS7003;20503;50.200;19.508;2023-03-17T22:53:41;28;23;12
34240;PMS7003;20503;50.200;19.508;2023-03-17T22:58:49;30;19;13
34240;PMS7003;20503;50.200;19.508;2023-03-17T23:03:57;28;20;14
34240;PMS7003;20503;50.200;19.508;2023-03-17T23:09:05;41;32;19
34240;PMS7003;20503;50.200;19.508;2023-03-17T23:14:13;30;22;16
34240;PMS7003;20503;50.200;19.508;2023-03-17T23:19:21;31;23;16
34240;PMS7003;20503;50.200;19.508;2023-03-17T23:24:29;27;23;16
34240;PMS7003;20503;50.200;19.508;2023-03-17T23:29:36;31;25;17
34240;PMS7003;20503;50.200;19.508;2023-03-17T23:34:44;30;22;15
34240;PMS7003;20503;50.200;19.508;2023-03-17T23:39:52;21;18;12
34240;PMS7003;20503;50.200;19.508;2023-03-17T23:44:59;29;19;12
34240;PMS7003;20503;50.200;19.508;2023-03-17T23:50:08;22;20;12
34240;PMS7003;20503;50.200;19.508;2023-03-17T23:55:15;33;20;13
